createdAt,value
2022-12-12T08:39:11.131Z,8.71
2022-12-12T08:40:15.667Z,8.55
2022-12-12T08:41:20.003Z,9.17
2022-12-12T08:42:22.449Z,9.21
2022-12-12T08:43:28.691Z,9.04
2022-12-12T08:44:33.155Z,9.39
2022-12-12T08:45:40.158Z,8.84
2022-12-12T08:46:44.013Z,9.74
2022-12-12T08:47:46.588Z,9.24
2022-12-12T08:48:50.101Z,9.61
2022-12-12T08:49:53.758Z,10.22
2022-12-12T08:50:57.341Z,9.95
2022-12-12T08:52:01.791Z,9.18
2022-12-12T08:53:05.216Z,9.07
2022-12-12T08:54:11.832Z,9.25
2022-12-12T08:55:15.237Z,9.13
2022-12-12T08:56:20.842Z,9.53
2022-12-12T08:57:26.079Z,9.34
2022-12-12T08:58:29.454Z,9.30
2022-12-12T08:59:32.931Z,9.48
2022-12-12T09:01:55.814Z,10.22
2022-12-12T09:02:58.360Z,9.91
2022-12-12T09:04:03.659Z,8.97
2022-12-12T09:05:08.729Z,9.85
2022-12-12T09:06:20.162Z,9.66
2022-12-12T09:07:23.780Z,9.79
2022-12-12T09:08:27.460Z,10.41
2022-12-12T09:09:31.841Z,10.02
2022-12-12T09:10:35.398Z,9.92
2022-12-12T09:11:39.824Z,9.76
2022-12-12T09:12:44.201Z,8.89
2022-12-12T09:13:48.125Z,9.02
2022-12-12T09:14:54.504Z,8.90
2022-12-12T09:16:00.533Z,8.18
2022-12-12T09:17:03.368Z,9.01
2022-12-12T09:18:08.688Z,9.46
2022-12-12T09:19:11.965Z,9.11
2022-12-12T09:20:19.857Z,8.61
2022-12-12T09:21:23.464Z,8.84
2022-12-12T09:22:27.224Z,8.77
2022-12-12T09:23:30.915Z,8.95
2022-12-12T09:24:33.426Z,8.44
2022-12-12T09:25:42.638Z,9.07
2022-12-12T09:26:45.155Z,9.14
2022-12-12T09:27:48.485Z,8.90
2022-12-12T09:28:52.908Z,9.09
2022-12-12T09:29:55.462Z,9.15
2022-12-12T09:31:00.777Z,8.98
2022-12-12T09:32:05.384Z,9.84
2022-12-12T09:33:08.952Z,9.55
2022-12-12T09:34:12.187Z,8.92
2022-12-12T09:35:15.742Z,9.65
2022-12-12T09:36:23.122Z,9.98
2022-12-12T09:37:28.192Z,9.51
2022-12-12T09:38:32.778Z,10.36
2022-12-12T09:39:38.405Z,9.89
2022-12-12T09:41:03.194Z,10.13
2022-12-12T09:43:31.830Z,9.34
2022-12-12T09:44:34.487Z,10.36
2022-12-12T09:45:39.861Z,9.94
2022-12-12T09:46:51.742Z,10.93
2022-12-12T09:47:59.835Z,9.84
2022-12-12T09:49:20.860Z,10.56
2022-12-12T09:51:31.143Z,10.01
2022-12-12T09:52:37.707Z,9.92
2022-12-12T09:53:43.646Z,10.45
2022-12-12T09:54:48.673Z,9.71
2022-12-12T09:55:57.700Z,10.02
2022-12-12T09:57:25.609Z,9.81
2022-12-12T09:58:49.183Z,9.78
2022-12-12T10:00:02.391Z,10.13
2022-12-12T10:01:29.139Z,9.90
2022-12-12T10:02:47.484Z,10.30
2022-12-12T10:03:57.566Z,10.43
2022-12-12T10:05:19.325Z,11.26
2022-12-12T10:06:40.131Z,10.36
2022-12-12T10:09:28.471Z,11.65
2022-12-12T10:11:55.580Z,11.16
2022-12-12T10:13:01.681Z,10.33
2022-12-12T10:14:08.839Z,10.86
2022-12-12T10:15:23.154Z,10.90
2022-12-12T10:16:29.238Z,10.44
2022-12-12T10:17:44.883Z,10.72
2022-12-12T10:18:52.202Z,10.94
2022-12-12T10:20:02.080Z,11.31
2022-12-12T10:21:09.556Z,11.10
2022-12-12T10:22:24.215Z,10.81
2022-12-12T10:23:51.166Z,11.57
2022-12-12T10:24:58.376Z,10.92
2022-12-12T10:26:15.483Z,10.69
2022-12-12T10:27:20.348Z,10.46
2022-12-12T10:28:29.857Z,10.37
2022-12-12T10:29:39.627Z,10.36
2022-12-12T10:30:52.165Z,10.66
2022-12-12T10:31:59.410Z,10.44
2022-12-12T10:33:40.176Z,9.74
2022-12-12T10:34:56.411Z,10.03
2022-12-12T10:36:27.356Z,10.37
2022-12-12T10:37:57.507Z,10.44
2022-12-12T10:39:04.846Z,10.35
2022-12-12T10:40:18.802Z,10.88
2022-12-12T10:41:35.552Z,10.81
2022-12-12T10:42:51.860Z,10.63
2022-12-12T10:44:29.686Z,11.30
2022-12-12T10:45:54.885Z,10.17
2022-12-12T10:47:10.375Z,11.08
2022-12-12T10:48:14.134Z,10.88
2022-12-12T10:49:21.841Z,11.15
2022-12-12T10:50:40.417Z,11.25
2022-12-12T10:51:46.820Z,11.63
2022-12-12T10:52:50.449Z,10.15
2022-12-12T10:53:54.060Z,11.55
2022-12-12T10:55:01.470Z,11.62
2022-12-12T10:56:11.942Z,11.17
2022-12-12T10:57:29.598Z,10.54
2022-12-12T10:58:42.798Z,10.62
2022-12-12T10:59:49.894Z,10.18
2022-12-12T11:01:02.033Z,10.48
2022-12-12T11:02:11.034Z,9.81
2022-12-12T11:03:30.472Z,10.36
2022-12-12T11:04:34.142Z,10.41
2022-12-12T11:05:40.444Z,10.61
2022-12-12T11:06:49.271Z,10.34
2022-12-12T11:08:03.237Z,10.28
2022-12-12T11:09:24.942Z,10.69
2022-12-12T11:10:34.612Z,10.09
2022-12-12T11:11:38.619Z,10.97
2022-12-12T11:12:42.038Z,9.74
2022-12-12T11:15:08.766Z,9.35
2022-12-12T11:16:19.212Z,9.42
2022-12-12T11:17:29.878Z,9.82
2022-12-12T11:18:33.556Z,9.74
2022-12-12T11:19:39.489Z,9.29
2022-12-12T11:20:48.313Z,8.93
2022-12-12T11:21:55.806Z,8.11
2022-12-12T11:22:59.513Z,8.97
2022-12-12T11:25:23.510Z,8.94
2022-12-12T11:26:29.961Z,8.51
2022-12-12T11:27:36.139Z,9.07
2022-12-12T11:28:44.770Z,9.05
2022-12-12T11:30:00.945Z,8.98
2022-12-12T11:31:09.501Z,8.50
2022-12-12T11:32:25.230Z,8.39
2022-12-12T11:33:35.715Z,8.78
2022-12-12T11:34:43.326Z,8.40
2022-12-12T11:35:47.956Z,8.62
2022-12-12T11:36:52.024Z,9.18
2022-12-12T11:38:00.756Z,8.40
2022-12-12T11:40:31.579Z,9.52
2022-12-12T11:41:40.000Z,9.77
2022-12-12T11:42:43.384Z,9.09
2022-12-12T11:43:58.855Z,9.76
2022-12-12T11:45:09.218Z,8.92
2022-12-12T11:46:17.800Z,9.09
2022-12-12T11:47:35.104Z,8.69
2022-12-12T11:48:54.762Z,9.07
2022-12-12T11:50:07.683Z,8.62
2022-12-12T11:51:13.806Z,9.72
2022-12-12T11:52:21.155Z,8.72
2022-12-12T11:53:29.011Z,9.45
2022-12-12T11:54:31.915Z,9.19
2022-12-12T11:55:42.015Z,9.24
2022-12-12T11:57:15.719Z,9.57
2022-12-12T11:58:25.685Z,8.97
2022-12-12T12:00:55.102Z,10.09
2022-12-12T12:02:01.474Z,9.39
2022-12-12T12:03:27.193Z,8.99
2022-12-12T12:04:58.726Z,8.52
2022-12-12T12:06:10.866Z,8.67
2022-12-12T12:07:24.074Z,8.92
2022-12-12T12:08:48.971Z,9.19
2022-12-12T12:09:58.182Z,9.34
2022-12-12T12:11:08.269Z,8.61
2022-12-12T12:12:24.611Z,9.02
2022-12-12T12:13:41.454Z,9.26
2022-12-12T12:15:22.114Z,9.09
2022-12-12T12:16:46.474Z,8.93
2022-12-12T12:17:59.505Z,8.86
2022-12-12T12:19:11.445Z,8.87
2022-12-12T12:20:31.594Z,9.36
2022-12-12T12:22:03.156Z,8.83
2022-12-12T12:23:21.381Z,8.08
2022-12-12T12:24:52.929Z,8.87
2022-12-12T12:26:09.863Z,9.15
2022-12-12T12:27:24.344Z,9.07
2022-12-12T12:28:57.192Z,8.96
2022-12-12T12:30:16.629Z,9.08
2022-12-12T12:31:49.959Z,8.97
2022-12-12T12:33:05.348Z,8.93
2022-12-12T12:34:24.381Z,8.96
2022-12-12T12:35:34.179Z,9.76
2022-12-12T12:36:56.945Z,9.58
2022-12-12T12:38:28.123Z,9.16
2022-12-12T12:39:41.596Z,9.13
2022-12-12T12:41:19.104Z,9.48
2022-12-12T12:42:51.663Z,9.13
2022-12-12T12:44:05.229Z,9.27
2022-12-12T12:45:21.430Z,9.75
2022-12-12T12:46:31.641Z,9.56
2022-12-12T12:47:57.097Z,9.29
2022-12-12T12:50:28.291Z,9.55
2022-12-12T12:51:45.564Z,9.28
2022-12-12T12:53:00.133Z,10.21
2022-12-12T12:54:10.145Z,10.26
2022-12-12T12:55:17.402Z,10.72
2022-12-12T12:56:28.121Z,10.34
2022-12-12T12:57:35.547Z,10.46
2022-12-12T12:58:41.782Z,9.94
2022-12-12T12:59:49.304Z,10.56
2022-12-12T13:01:11.848Z,10.46
2022-12-12T13:02:31.335Z,9.34
2022-12-12T13:03:40.404Z,9.32
2022-12-12T13:06:08.381Z,8.87
2022-12-12T13:07:21.431Z,9.46
2022-12-12T13:08:47.061Z,10.02
2022-12-12T13:10:11.320Z,9.49
2022-12-12T13:11:29.271Z,9.94
2022-12-12T13:12:48.500Z,8.86
2022-12-12T13:13:54.898Z,9.63
2022-12-12T13:15:27.308Z,9.93
2022-12-12T13:16:34.294Z,9.99
